createdAt,value
2023-05-22T00:02:19.564Z,99.90
2023-05-22T00:04:48.030Z,99.90
2023-05-22T00:07:16.362Z,99.90
2023-05-22T00:09:44.774Z,99.90
2023-05-22T00:12:14.483Z,99.90
2023-05-22T00:14:42.855Z,99.90
2023-05-22T00:17:15.155Z,99.90
2023-05-22T00:19:43.653Z,99.90
2023-05-22T00:22:12.000Z,99.90
2023-05-22T00:24:40.433Z,99.90
2023-05-22T00:27:08.732Z,99.90
2023-05-22T00:29:38.575Z,99.90
2023-05-22T00:32:07.758Z,99.90
2023-05-22T00:34:36.097Z,99.90
2023-05-22T00:37:04.496Z,99.90
2023-05-22T00:39:32.921Z,99.90
2023-05-22T00:42:01.510Z,99.90
2023-05-22T00:44:30.487Z,99.90
2023-05-22T00:47:00.361Z,99.90
2023-05-22T00:49:28.721Z,99.90
2023-05-22T00:51:57.178Z,99.90
2023-05-22T00:54:25.576Z,99.90
2023-05-22T00:56:54.174Z,99.90
2023-05-22T00:59:22.695Z,99.90
2023-05-22T01:01:51.285Z,99.90
2023-05-22T01:04:21.116Z,99.90
2023-05-22T01:06:50.211Z,99.90
2023-05-22T01:09:18.588Z,99.90
2023-05-22T01:11:58.081Z,99.90
2023-05-22T01:14:35.005Z,99.90
2023-05-22T01:17:16.236Z,99.90
2023-05-22T01:20:07.074Z,99.90
2023-05-22T01:23:05.915Z,99.90
2023-05-22T01:26:09.474Z,99.90
2023-05-22T01:29:08.933Z,99.90
2023-05-22T01:31:42.912Z,99.90
2023-05-22T01:34:12.954Z,99.90
2023-05-22T01:36:43.256Z,99.90
2023-05-22T01:39:12.649Z,99.90
2023-05-22T01:41:42.315Z,99.90
2023-05-22T01:44:12.444Z,99.90
2023-05-22T01:46:42.174Z,99.90
2023-05-22T01:49:10.674Z,99.90
2023-05-22T01:51:50.814Z,99.90
2023-05-22T01:54:25.698Z,99.90
2023-05-22T01:56:57.939Z,99.90
2023-05-22T01:59:33.983Z,99.90
2023-05-22T02:02:07.919Z,99.90
2023-05-22T02:04:40.541Z,99.90
2023-05-22T02:07:12.323Z,99.90
2023-05-22T02:09:42.953Z,99.90
2023-05-22T02:12:14.610Z,99.90
2023-05-22T02:14:44.248Z,99.90
2023-05-22T02:17:14.089Z,99.90
2023-05-22T02:19:44.422Z,99.90
2023-05-22T02:22:13.796Z,99.90
2023-05-22T02:24:44.199Z,99.90
2023-05-22T02:27:12.911Z,99.90
2023-05-22T02:29:41.511Z,99.90
2023-05-22T02:32:10.162Z,99.90
2023-05-22T02:34:40.164Z,99.90
2023-05-22T02:37:08.514Z,99.90
2023-05-22T02:39:36.852Z,99.90
2023-05-22T02:42:07.514Z,99.90
2023-05-22T02:44:36.007Z,99.90
2023-05-22T02:47:04.356Z,99.90
2023-05-22T02:49:32.777Z,99.90
2023-05-22T02:52:02.487Z,99.90
2023-05-22T02:54:30.833Z,99.90
2023-05-22T02:56:59.207Z,99.90
2023-05-22T02:59:27.619Z,99.90
2023-05-22T03:01:55.994Z,99.90
2023-05-22T03:04:25.226Z,99.90
2023-05-22T03:06:54.721Z,99.90
2023-05-22T03:09:24.453Z,99.90
2023-05-22T03:11:53.951Z,99.90
2023-05-22T03:14:22.739Z,99.90
2023-05-22T03:16:51.369Z,99.90
2023-05-22T03:19:20.005Z,99.90
2023-05-22T03:21:50.088Z,99.90
2023-05-22T03:24:18.748Z,99.90
2023-05-22T03:26:48.488Z,99.90
2023-05-22T03:29:22.657Z,99.90
2023-05-22T03:31:51.073Z,99.90
2023-05-22T03:34:19.406Z,99.90
2023-05-22T03:36:49.815Z,99.90
2023-05-22T03:39:19.016Z,99.90
2023-05-22T03:41:57.490Z,99.90
2023-05-22T03:44:27.134Z,99.90
2023-05-22T03:46:56.267Z,99.90
2023-05-22T03:49:24.638Z,99.90
2023-05-22T03:51:54.072Z,99.90
2023-05-22T03:54:23.026Z,99.90
2023-05-22T03:56:51.454Z,99.90
2023-05-22T03:59:22.734Z,99.90
2023-05-22T04:01:51.348Z,99.90
2023-05-22T04:04:19.757Z,99.90
2023-05-22T04:06:48.187Z,99.90
2023-05-22T04:09:16.649Z,99.90
2023-05-22T04:11:46.449Z,99.90
2023-05-22T04:14:14.879Z,99.90
2023-05-22T04:16:44.612Z,99.90
2023-05-22T04:19:14.043Z,99.90
2023-05-22T04:21:44.119Z,99.90
2023-05-22T04:24:12.724Z,99.90
2023-05-22T04:26:42.581Z,99.90
2023-05-22T04:29:14.460Z,99.90
2023-05-22T04:31:44.643Z,99.90
2023-05-22T04:34:13.923Z,99.90
2023-05-22T04:36:44.991Z,99.90
2023-05-22T04:39:14.153Z,99.90
2023-05-22T04:41:42.855Z,99.90
2023-05-22T04:44:11.225Z,99.90
2023-05-22T04:46:39.566Z,99.90
2023-05-22T04:49:09.421Z,99.90
2023-05-22T04:51:37.772Z,99.90
2023-05-22T04:54:06.335Z,99.90
2023-05-22T04:56:36.774Z,99.90
2023-05-22T04:59:09.291Z,99.90
2023-05-22T05:01:39.577Z,99.90
2023-05-22T05:04:09.508Z,99.90
2023-05-22T05:06:37.983Z,99.90
2023-05-22T05:09:07.082Z,99.90
2023-05-22T05:11:36.614Z,99.90
2023-05-22T05:14:05.320Z,99.90
2023-05-22T05:16:33.758Z,99.90
2023-05-22T05:19:02.324Z,99.90
2023-05-22T05:21:32.266Z,99.90
2023-05-22T05:24:03.223Z,99.90
2023-05-22T05:26:31.885Z,99.90
2023-05-22T05:29:00.576Z,99.90
2023-05-22T05:31:37.470Z,99.90
2023-05-22T05:34:18.072Z,99.90
2023-05-22T05:36:59.582Z,99.90
2023-05-22T05:39:29.685Z,99.90
2023-05-22T05:42:00.288Z,99.90
2023-05-22T05:44:29.192Z,99.90
2023-05-22T05:46:58.563Z,99.90
2023-05-22T05:49:28.317Z,99.90
2023-05-22T05:51:58.435Z,99.90
2023-05-22T05:54:27.426Z,99.90
2023-05-22T05:56:59.704Z,99.90
2023-05-22T05:59:28.101Z,99.90
2023-05-22T06:02:11.078Z,99.90
2023-05-22T06:04:39.496Z,99.90
2023-05-22T06:07:09.353Z,99.90
2023-05-22T06:09:47.543Z,99.90
2023-05-22T06:12:19.335Z,99.90
2023-05-22T06:14:47.842Z,99.90
2023-05-22T06:17:16.974Z,99.90
2023-05-22T06:19:46.690Z,99.90
2023-05-22T06:22:18.261Z,99.90
2023-05-22T06:24:49.893Z,99.90
2023-05-22T06:27:22.653Z,99.90
2023-05-22T06:29:51.272Z,99.90
2023-05-22T06:32:21.362Z,99.90
2023-05-22T06:34:50.944Z,99.90
2023-05-22T06:37:23.048Z,99.90
2023-05-22T06:39:51.610Z,99.90
2023-05-22T06:42:34.683Z,99.90
2023-05-22T06:45:21.426Z,99.90
2023-05-22T06:48:06.260Z,99.90
2023-05-22T06:50:39.629Z,99.90
2023-05-22T06:53:09.839Z,99.90
2023-05-22T06:55:38.245Z,99.90
2023-05-22T06:58:13.874Z,99.90
2023-05-22T07:00:42.513Z,99.90
2023-05-22T07:03:21.367Z,99.90
2023-05-22T07:06:10.230Z,99.90
2023-05-22T07:08:40.862Z,99.90
2023-05-22T07:11:09.372Z,99.90
2023-05-22T07:13:37.836Z,99.90
2023-05-22T07:16:07.155Z,99.90
2023-05-22T07:18:36.801Z,99.90
2023-05-22T07:21:06.172Z,99.90
2023-05-22T07:23:34.562Z,99.90
2023-05-22T07:26:04.587Z,99.90
2023-05-22T07:28:38.092Z,99.90
2023-05-22T07:31:13.743Z,99.90
2023-05-22T07:33:42.240Z,99.90
2023-05-22T07:36:11.672Z,99.90
2023-05-22T07:38:42.983Z,99.90
2023-05-22T07:41:12.874Z,99.90
2023-05-22T07:43:41.396Z,99.90
2023-05-22T07:46:12.407Z,99.90
2023-05-22T07:48:51.732Z,99.90
2023-05-22T07:51:20.613Z,99.90
2023-05-22T07:53:52.087Z,99.90
2023-05-22T07:56:22.222Z,99.90
2023-05-22T07:58:52.127Z,99.90
2023-05-22T08:01:22.245Z,99.90
2023-05-22T08:03:51.139Z,99.90
2023-05-22T08:06:19.827Z,99.90
2023-05-22T08:08:48.307Z,99.90
2023-05-22T08:11:16.818Z,99.90
2023-05-22T08:13:46.638Z,99.90
2023-05-22T08:16:15.122Z,99.90
2023-05-22T08:18:43.537Z,99.90
2023-05-22T08:21:11.930Z,99.90
2023-05-22T08:23:40.274Z,99.90
2023-05-22T08:26:09.783Z,99.90
2023-05-22T08:28:42.017Z,99.90
2023-05-22T08:31:12.172Z,99.90
2023-05-22T08:33:41.199Z,99.90
2023-05-22T08:36:09.994Z,99.90
2023-05-22T08:38:38.559Z,99.90
2023-05-22T08:41:08.678Z,99.90
2023-05-22T08:43:37.289Z,99.90
2023-05-22T08:46:08.760Z,99.90
2023-05-22T08:48:39.097Z,99.90
2023-05-22T08:51:08.697Z,99.90
2023-05-22T08:53:38.462Z,99.90
2023-05-22T08:56:08.567Z,99.90
2023-05-22T08:58:38.211Z,99.90
2023-05-22T09:01:07.278Z,99.90
2023-05-22T09:03:39.172Z,99.90
2023-05-22T09:06:09.409Z,99.90
2023-05-22T09:08:38.428Z,99.90
2023-05-22T09:11:06.911Z,99.90
2023-05-22T09:13:35.359Z,99.90
2023-05-22T09:16:11.069Z,99.90
2023-05-22T09:18:42.642Z,99.90
2023-05-22T09:21:25.734Z,99.90
2023-05-22T09:24:01.737Z,99.90
2023-05-22T09:26:32.926Z,99.90
2023-05-22T09:29:01.816Z,99.90
2023-05-22T09:31:30.870Z,99.90
2023-05-22T09:34:00.836Z,99.90
2023-05-22T09:36:33.525Z,99.90
2023-05-22T09:39:02.895Z,99.90
2023-05-22T09:41:36.718Z,99.90
2023-05-22T09:44:13.003Z,99.90
2023-05-22T09:46:42.959Z,99.90
2023-05-22T09:49:16.003Z,99.90
2023-05-22T09:51:47.901Z,99.90
2023-05-22T09:54:18.047Z,99.90
2023-05-22T09:56:50.200Z,99.90
2023-05-22T09:59:23.674Z,99.90
2023-05-22T10:01:53.724Z,99.90
2023-05-22T10:04:24.625Z,99.90
2023-05-22T10:06:55.096Z,99.90
2023-05-22T10:09:30.614Z,99.90
2023-05-22T10:12:04.277Z,99.90
2023-05-22T10:14:33.440Z,99.90
2023-05-22T10:17:04.780Z,99.90
2023-05-22T10:19:39.752Z,99.90
2023-05-22T10:22:14.890Z,99.90
2023-05-22T10:24:44.016Z,99.90
2023-05-22T10:27:12.461Z,99.90
2023-05-22T10:29:48.395Z,99.90
2023-05-22T10:32:26.020Z,99.90
2023-05-22T10:35:07.821Z,99.90
2023-05-22T10:37:49.856Z,99.90
2023-05-22T10:40:28.810Z,99.60
2023-05-22T10:43:01.599Z,99.90
2023-05-22T10:45:30.621Z,99.40
2023-05-22T10:48:06.630Z,98.80
2023-05-22T10:50:37.332Z,98.60
2023-05-22T10:53:23.896Z,98.50
2023-05-22T10:55:53.526Z,98.10
2023-05-22T10:58:28.424Z,97.20
2023-05-22T11:01:12.691Z,97.10
2023-05-22T11:03:58.100Z,97.50
2023-05-22T11:06:42.410Z,97.10
2023-05-22T11:09:30.716Z,97.10
2023-05-22T11:12:17.592Z,97.10
2023-05-22T11:14:53.402Z,96.70
2023-05-22T11:17:27.003Z,96.50
2023-05-22T11:20:00.373Z,96.00
2023-05-22T11:22:43.033Z,96.50
2023-05-22T11:25:13.125Z,96.00
2023-05-22T11:27:43.010Z,96.10
2023-05-22T11:30:13.187Z,95.90
2023-05-22T11:32:44.925Z,95.70
2023-05-22T11:35:15.737Z,95.70
2023-05-22T11:37:46.070Z,96.40
2023-05-22T11:40:16.571Z,96.10
2023-05-22T11:42:45.611Z,96.60
2023-05-22T11:45:14.151Z,96.10
2023-05-22T11:47:42.709Z,95.60
2023-05-22T11:50:12.711Z,96.20
2023-05-22T11:52:42.534Z,96.10
2023-05-22T11:55:12.678Z,96.40
2023-05-22T11:57:41.103Z,95.80
2023-05-22T12:00:10.842Z,96.20
2023-05-22T12:02:47.444Z,96.80
2023-05-22T12:05:16.719Z,96.50
2023-05-22T12:07:45.515Z,96.70
2023-05-22T12:10:16.725Z,96.10
2023-05-22T12:12:45.431Z,95.90
2023-05-22T12:15:14.749Z,96.00
2023-05-22T12:17:44.616Z,96.30
2023-05-22T12:20:14.540Z,95.60
2023-05-22T12:22:44.082Z,95.80
2023-05-22T12:25:18.099Z,96.30
2023-05-22T12:27:47.466Z,96.20
2023-05-22T12:30:16.918Z,96.60
2023-05-22T12:32:49.607Z,96.40
2023-05-22T12:35:18.601Z,96.50
2023-05-22T12:37:50.990Z,96.10
2023-05-22T12:40:20.817Z,97.10
2023-05-22T12:42:49.868Z,96.50
2023-05-22T12:45:18.824Z,96.40
2023-05-22T12:47:47.386Z,96.00
2023-05-22T12:50:16.144Z,96.20
2023-05-22T12:52:44.555Z,95.70
2023-05-22T12:55:12.952Z,95.80
2023-05-22T12:57:42.757Z,95.70
2023-05-22T13:00:12.420Z,96.10
2023-05-22T13:02:40.896Z,95.50
2023-05-22T13:05:09.626Z,95.70
2023-05-22T13:07:38.459Z,95.80
2023-05-22T13:10:07.818Z,95.70
2023-05-22T13:12:36.314Z,95.60
2023-05-22T13:15:07.306Z,96.70
2023-05-22T13:17:35.878Z,97.00
2023-05-22T13:20:04.500Z,95.80
2023-05-22T13:22:33.045Z,95.10
2023-05-22T13:25:01.671Z,94.90
2023-05-22T13:27:32.780Z,95.30
2023-05-22T13:30:02.257Z,95.30
2023-05-22T13:32:34.531Z,96.30
2023-05-22T13:35:03.106Z,95.30
2023-05-22T13:37:32.138Z,95.00
2023-05-22T13:40:00.608Z,95.80
2023-05-22T13:42:29.164Z,95.90
2023-05-22T13:44:57.737Z,95.30
2023-05-22T13:47:26.281Z,96.10
2023-05-22T13:49:56.404Z,96.40
2023-05-22T13:52:24.957Z,97.40
2023-05-22T13:54:53.328Z,96.90
2023-05-22T13:57:21.725Z,97.90
2023-05-22T13:59:50.079Z,97.70
2023-05-22T14:02:20.504Z,97.60
2023-05-22T14:04:49.731Z,98.50
2023-05-22T14:07:19.589Z,97.30
2023-05-22T14:09:47.911Z,97.00
2023-05-22T14:12:16.318Z,96.90
2023-05-22T14:14:44.671Z,96.30
2023-05-22T14:17:13.039Z,96.00
2023-05-22T14:19:41.391Z,96.10
2023-05-22T14:22:09.727Z,97.00
2023-05-22T14:24:39.445Z,96.00
2023-05-22T14:27:07.889Z,96.10
2023-05-22T14:29:36.146Z,96.30
2023-05-22T14:32:05.663Z,96.30
2023-05-22T14:34:34.102Z,96.20
2023-05-22T14:37:02.503Z,95.60
2023-05-22T14:39:30.816Z,96.50
2023-05-22T14:42:00.917Z,96.00
2023-05-22T14:44:29.390Z,96.40
2023-05-22T14:46:57.868Z,95.70
2023-05-22T14:49:26.393Z,96.00
2023-05-22T14:51:54.912Z,96.30
2023-05-22T14:54:23.860Z,95.90
2023-05-22T14:56:52.315Z,95.70
2023-05-22T14:59:22.135Z,94.90
2023-05-22T15:01:52.155Z,96.00
2023-05-22T15:04:20.793Z,96.40
2023-05-22T15:06:49.504Z,95.50
2023-05-22T15:09:18.117Z,95.40
2023-05-22T15:11:49.176Z,96.30
2023-05-22T15:14:18.107Z,95.80
2023-05-22T15:16:48.882Z,95.40
2023-05-22T15:19:17.482Z,95.70
2023-05-22T15:21:46.034Z,95.80
2023-05-22T15:24:14.732Z,95.90
2023-05-22T15:26:43.125Z,96.20
2023-05-22T15:29:12.258Z,95.50
2023-05-22T15:31:40.727Z,96.00
2023-05-22T15:34:10.541Z,96.40
2023-05-22T15:36:40.260Z,96.10
2023-05-22T15:39:08.610Z,95.90
2023-05-22T15:41:36.951Z,95.40
2023-05-22T15:44:05.457Z,95.90
2023-05-22T15:46:33.862Z,96.00
2023-05-22T15:49:02.261Z,96.40
2023-05-22T15:51:32.687Z,96.40
2023-05-22T15:54:01.003Z,96.60
2023-05-22T15:56:29.321Z,96.50
2023-05-22T15:58:57.688Z,96.70
2023-05-22T16:01:26.071Z,97.10
2023-05-22T16:03:54.564Z,97.30
2023-05-22T16:06:23.340Z,97.50
2023-05-22T16:08:53.011Z,97.50
2023-05-22T16:11:21.371Z,97.60
2023-05-22T16:13:50.603Z,98.10
2023-05-22T16:16:19.032Z,98.10
2023-05-22T16:18:47.398Z,98.60
2023-05-22T16:21:15.817Z,98.00
2023-05-22T16:23:44.152Z,97.90
2023-05-22T16:26:13.942Z,98.30
2023-05-22T16:28:42.235Z,98.30
2023-05-22T16:31:12.792Z,98.40
2023-05-22T16:33:41.146Z,98.40
2023-05-22T16:36:09.807Z,98.40
2023-05-22T16:38:38.170Z,98.60
2023-05-22T16:41:06.642Z,98.60
2023-05-22T16:43:36.683Z,98.60
2023-05-22T16:46:05.040Z,98.70
2023-05-22T16:48:33.456Z,99.00
2023-05-22T16:51:01.814Z,98.60
2023-05-22T16:53:30.113Z,99.00
2023-05-22T16:55:59.767Z,99.40
2023-05-22T16:58:28.324Z,99.80
2023-05-22T17:00:58.245Z,99.90
2023-05-22T17:03:26.997Z,99.90
2023-05-22T17:05:55.595Z,99.90
2023-05-22T17:08:23.928Z,99.90
2023-05-22T17:10:52.473Z,99.90
2023-05-22T17:13:21.416Z,99.90
2023-05-22T17:15:49.914Z,99.90
2023-05-22T17:18:20.957Z,99.90
2023-05-22T17:20:49.798Z,99.90
2023-05-22T17:23:18.655Z,99.90
2023-05-22T17:25:47.486Z,99.90
2023-05-22T17:28:16.588Z,99.90
2023-05-22T17:30:46.087Z,99.90
2023-05-22T17:33:14.969Z,99.90
2023-05-22T17:35:46.022Z,99.90
2023-05-22T17:38:14.490Z,99.90
2023-05-22T17:40:45.651Z,99.90
2023-05-22T17:43:14.979Z,99.90
2023-05-22T17:45:44.481Z,99.90
2023-05-22T17:48:14.673Z,99.90
2023-05-22T17:50:43.258Z,99.90
2023-05-22T17:53:13.468Z,99.90
2023-05-22T17:55:41.814Z,99.90
2023-05-22T17:58:10.390Z,99.90
2023-05-22T18:00:38.955Z,99.90
2023-05-22T18:03:07.901Z,99.90
2023-05-22T18:05:36.678Z,99.90
2023-05-22T18:08:05.194Z,99.90
2023-05-22T18:10:34.975Z,99.90
2023-05-22T18:13:03.328Z,99.90
2023-05-22T18:15:32.870Z,99.90
2023-05-22T18:18:01.203Z,99.90
2023-05-22T18:20:29.759Z,99.90
2023-05-22T18:22:58.044Z,99.90
2023-05-22T18:25:26.556Z,99.90
2023-05-22T18:27:56.360Z,99.90
2023-05-22T18:30:24.783Z,99.90
2023-05-22T18:32:53.132Z,99.90
2023-05-22T18:35:21.766Z,99.90
2023-05-22T18:37:50.116Z,99.90
2023-05-22T18:40:18.717Z,99.90
2023-05-22T18:42:47.041Z,99.90
2023-05-22T18:45:16.838Z,99.90
2023-05-22T18:47:45.147Z,99.90
2023-05-22T18:50:13.900Z,99.90
2023-05-22T18:52:42.169Z,99.90
2023-05-22T18:55:11.248Z,99.90
2023-05-22T18:57:39.667Z,99.90
2023-05-22T19:00:10.212Z,99.90
2023-05-22T19:02:39.930Z,99.90
2023-05-22T19:05:08.991Z,99.90
2023-05-22T19:07:37.307Z,99.90
2023-05-22T19:10:08.032Z,99.90
2023-05-22T19:12:36.758Z,99.90
2023-05-22T19:15:05.921Z,99.90
2023-05-22T19:17:34.306Z,99.90
2023-05-22T19:20:06.523Z,99.90
2023-05-22T19:22:34.922Z,99.90
2023-05-22T19:25:03.264Z,99.90
2023-05-22T19:27:31.578Z,99.90
2023-05-22T19:29:59.927Z,99.90
2023-05-22T19:32:28.251Z,99.90
2023-05-22T19:34:56.568Z,99.90
2023-05-22T19:37:26.349Z,99.90
2023-05-22T19:39:55.406Z,99.90
2023-05-22T19:42:23.655Z,99.90
2023-05-22T19:44:52.046Z,99.90
2023-05-22T19:47:20.443Z,99.90
2023-05-22T19:49:48.859Z,99.90
2023-05-22T19:52:17.243Z,99.90
2023-05-22T19:54:46.973Z,99.90
2023-05-22T19:57:15.255Z,99.90
2023-05-22T19:59:43.587Z,99.90
2023-05-22T20:02:12.016Z,99.90
2023-05-22T20:04:44.381Z,99.90
2023-05-22T20:07:15.993Z,99.90
2023-05-22T20:09:45.868Z,99.90
2023-05-22T20:12:14.727Z,99.90
2023-05-22T20:14:43.149Z,99.90
2023-05-22T20:17:11.536Z,99.90
2023-05-22T20:19:40.270Z,99.90
2023-05-22T20:22:08.805Z,99.90
2023-05-22T20:24:37.244Z,99.90
2023-05-22T20:27:07.121Z,99.90
2023-05-22T20:29:35.531Z,99.90
2023-05-22T20:32:03.979Z,99.90
2023-05-22T20:34:32.428Z,99.90
2023-05-22T20:37:02.390Z,99.90
2023-05-22T20:39:30.850Z,99.90
2023-05-22T20:42:02.918Z,99.90
2023-05-22T20:44:32.700Z,99.90
2023-05-22T20:47:01.245Z,99.90
2023-05-22T20:49:29.981Z,99.90
2023-05-22T20:51:59.973Z,99.90
2023-05-22T20:54:28.811Z,99.90
2023-05-22T20:56:57.532Z,99.90
2023-05-22T20:59:25.979Z,99.90
2023-05-22T21:01:56.044Z,99.90
2023-05-22T21:04:24.635Z,99.90
2023-05-22T21:06:53.085Z,99.90
2023-05-22T21:09:21.413Z,99.90
2023-05-22T21:11:49.790Z,99.90
2023-05-22T21:14:18.240Z,99.90
2023-05-22T21:16:46.596Z,99.90
2023-05-22T21:19:16.519Z,99.90
2023-05-22T21:21:44.878Z,99.90
2023-05-22T21:24:13.224Z,99.90
2023-05-22T21:26:41.807Z,99.90
2023-05-22T21:29:10.180Z,99.90
2023-05-22T21:31:38.566Z,99.90
2023-05-22T21:34:06.943Z,99.90
2023-05-22T21:36:37.412Z,99.90
2023-05-22T21:39:05.713Z,99.90
2023-05-22T21:41:34.684Z,99.90
2023-05-22T21:44:03.140Z,99.90
2023-05-22T21:46:31.504Z,99.90
2023-05-22T21:49:02.888Z,99.90
2023-05-22T21:51:32.046Z,99.90
2023-05-22T21:54:01.767Z,99.90
2023-05-22T21:56:30.192Z,99.90
2023-05-22T21:58:58.456Z,99.90
2023-05-22T22:01:26.835Z,99.90
2023-05-22T22:03:55.269Z,99.90
2023-05-22T22:06:24.153Z,99.90
2023-05-22T22:08:53.192Z,99.90
2023-05-22T22:11:22.966Z,99.90
2023-05-22T22:13:51.506Z,99.90
2023-05-22T22:16:21.764Z,99.90
2023-05-22T22:18:50.398Z,99.90
2023-05-22T22:21:19.819Z,99.90
2023-05-22T22:23:48.180Z,99.90
2023-05-22T22:26:17.078Z,99.90
2023-05-22T22:28:46.738Z,99.90
2023-05-22T22:31:15.097Z,99.90
2023-05-22T22:33:43.422Z,99.90
2023-05-22T22:36:11.738Z,99.90
2023-05-22T22:38:40.017Z,99.90
2023-05-22T22:41:09.626Z,99.90
2023-05-22T22:43:37.991Z,99.90
2023-05-22T22:46:08.692Z,99.90
2023-05-22T22:48:37.056Z,99.90
2023-05-22T22:51:05.394Z,99.90
2023-05-22T22:53:33.696Z,99.90
2023-05-22T22:56:02.821Z,99.90
2023-05-22T22:58:31.279Z,99.90
2023-05-22T23:00:59.674Z,99.90
2023-05-22T23:03:29.403Z,99.90
2023-05-22T23:05:57.955Z,99.90
2023-05-22T23:08:26.200Z,99.90
2023-05-22T23:10:54.622Z,99.90
2023-05-22T23:13:22.910Z,99.90
2023-05-22T23:15:51.622Z,99.90
2023-05-22T23:18:20.042Z,99.90
2023-05-22T23:20:49.799Z,99.90
2023-05-22T23:23:18.062Z,99.90
2023-05-22T23:25:46.429Z,99.90
2023-05-22T23:28:14.748Z,99.90
2023-05-22T23:30:43.459Z,99.90
2023-05-22T23:33:11.790Z,99.90
2023-05-22T23:35:40.265Z,99.90
2023-05-22T23:38:09.980Z,99.90
2023-05-22T23:40:38.340Z,99.90
2023-05-22T23:43:06.679Z,99.90
2023-05-22T23:45:35.064Z,99.90
2023-05-22T23:48:03.546Z,99.90
2023-05-22T23:50:31.938Z,99.90
2023-05-22T23:53:00.197Z,99.90
2023-05-22T23:55:29.927Z,99.90
2023-05-22T23:57:58.191Z,99.90
